createdAt,value
2023-03-16T00:02:18.834Z,-0.75
2023-03-16T00:04:47.411Z,-0.69
2023-03-16T00:07:14.743Z,-0.71
2023-03-16T00:09:41.973Z,-0.73
2023-03-16T00:12:15.598Z,-0.59
2023-03-16T00:14:43.973Z,-0.64
2023-03-16T00:17:18.829Z,-0.77
2023-03-16T00:19:55.871Z,-0.64
2023-03-16T00:22:27.433Z,-0.85
2023-03-16T00:24:54.922Z,-0.97
2023-03-16T00:27:22.969Z,-0.82
2023-03-16T00:29:55.807Z,-0.83
2023-03-16T00:32:28.619Z,-0.75
2023-03-16T00:34:55.166Z,-0.73
2023-03-16T00:37:23.858Z,-0.93
2023-03-16T00:39:51.402Z,-0.79
2023-03-16T00:42:20.188Z,-0.77
2023-03-16T00:44:46.933Z,-0.86
2023-03-16T00:47:14.312Z,-0.89
2023-03-16T00:49:43.605Z,-0.84
2023-03-16T00:52:15.954Z,-0.80
2023-03-16T00:54:44.611Z,-0.80
2023-03-16T00:57:12.696Z,-0.82
2023-03-16T00:59:39.921Z,-0.82
2023-03-16T01:02:07.890Z,-0.73
2023-03-16T01:04:35.895Z,-0.73
2023-03-16T01:07:04.810Z,-0.82
2023-03-16T01:09:36.810Z,-0.86
2023-03-16T01:12:08.428Z,-0.82
2023-03-16T01:14:36.203Z,-0.81
2023-03-16T01:17:04.940Z,-0.82
2023-03-16T01:19:35.642Z,-0.80
2023-03-16T01:22:04.616Z,-0.78
2023-03-16T01:24:32.422Z,-0.75
2023-03-16T01:26:59.645Z,-0.84
2023-03-16T01:29:26.230Z,-0.91
2023-03-16T01:31:55.778Z,-0.96
2023-03-16T01:34:23.030Z,-0.97
2023-03-16T01:36:51.000Z,-0.98
2023-03-16T01:39:25.666Z,-1.01
2023-03-16T01:41:52.093Z,-1.02
2023-03-16T01:44:22.432Z,-1.00
2023-03-16T01:46:48.990Z,-0.97
2023-03-16T01:49:25.114Z,-1.00
2023-03-16T01:52:03.781Z,-1.03
2023-03-16T01:55:09.282Z,-0.96
2023-03-16T01:57:42.554Z,-1.01
2023-03-16T02:00:24.330Z,-1.00
2023-03-16T02:03:14.079Z,-1.02
2023-03-16T02:06:06.533Z,-0.99
2023-03-16T02:08:36.883Z,-1.06
2023-03-16T02:11:04.664Z,-1.01
2023-03-16T02:13:45.776Z,-0.99
2023-03-16T02:16:19.230Z,-0.99
2023-03-16T02:18:51.234Z,-1.01
2023-03-16T02:21:46.644Z,-1.07
2023-03-16T02:24:13.580Z,-1.14
2023-03-16T02:26:47.499Z,-1.14
2023-03-16T02:29:29.913Z,-1.13
2023-03-16T02:31:58.188Z,-1.06
2023-03-16T02:34:26.270Z,-1.13
2023-03-16T02:36:53.801Z,-1.18
2023-03-16T02:39:24.143Z,-1.23
2023-03-16T02:41:50.967Z,-1.28
2023-03-16T02:44:27.580Z,-1.28
2023-03-16T02:47:03.614Z,-1.24
2023-03-16T02:49:38.565Z,-1.15
2023-03-16T02:52:06.560Z,-1.19
2023-03-16T02:54:33.127Z,-1.19
2023-03-16T02:56:59.709Z,-1.24
2023-03-16T02:59:27.876Z,-1.27
2023-03-16T03:01:54.388Z,-1.37
2023-03-16T03:04:23.345Z,-1.28
2023-03-16T03:06:51.350Z,-1.66
2023-03-16T03:09:18.867Z,-1.41
2023-03-16T03:11:46.998Z,-1.33
2023-03-16T03:14:16.662Z,-1.30
2023-03-16T03:16:46.769Z,-1.27
2023-03-16T03:19:15.130Z,-1.24
2023-03-16T03:21:41.906Z,-1.26
2023-03-16T03:24:09.694Z,-1.23
2023-03-16T03:26:38.130Z,-1.22
2023-03-16T03:29:07.138Z,-1.18
2023-03-16T03:31:35.044Z,-1.23
2023-03-16T03:34:06.403Z,-1.18
2023-03-16T03:36:35.548Z,-1.21
2023-03-16T03:39:05.943Z,-1.22
2023-03-16T03:41:34.383Z,-1.40
2023-03-16T03:44:04.282Z,-1.30
2023-03-16T03:46:31.326Z,-1.34
2023-03-16T03:49:03.528Z,-1.36
2023-03-16T03:51:32.766Z,-1.40
2023-03-16T03:54:03.346Z,-1.48
2023-03-16T03:56:40.738Z,-1.43
2023-03-16T03:59:11.536Z,-1.39
2023-03-16T04:01:58.397Z,-1.32
2023-03-16T04:04:30.894Z,-1.30
2023-03-16T04:06:57.359Z,-1.30
2023-03-16T04:09:23.936Z,-1.27
2023-03-16T04:11:50.876Z,-1.21
2023-03-16T04:14:17.342Z,-1.22
2023-03-16T04:16:47.068Z,-1.31
2023-03-16T04:19:14.343Z,-1.43
2023-03-16T04:21:41.132Z,-1.46
2023-03-16T04:24:07.716Z,-1.35
2023-03-16T04:26:36.001Z,-1.47
2023-03-16T04:29:03.937Z,-1.52
2023-03-16T04:31:32.232Z,-1.39
2023-03-16T04:33:59.126Z,-1.40
2023-03-16T04:36:25.625Z,-1.31
2023-03-16T04:38:53.122Z,-1.27
2023-03-16T04:41:20.142Z,-1.20
2023-03-16T04:43:57.627Z,-1.22
2023-03-16T04:46:27.305Z,-1.13
2023-03-16T04:48:58.177Z,-1.26
2023-03-16T04:51:26.784Z,-1.15
2023-03-16T04:54:08.916Z,-1.20
2023-03-16T04:56:41.413Z,-1.39
2023-03-16T04:59:15.285Z,-1.33
2023-03-16T05:01:48.434Z,-1.28
2023-03-16T05:04:19.534Z,-1.36
2023-03-16T05:06:47.221Z,-1.30
2023-03-16T05:09:14.535Z,-1.22
2023-03-16T05:11:40.977Z,-1.16
2023-03-16T05:14:11.124Z,-1.23
2023-03-16T05:16:52.232Z,-1.19
2023-03-16T05:19:19.092Z,-1.10
2023-03-16T05:21:46.078Z,-1.17
2023-03-16T05:24:12.589Z,-1.07
2023-03-16T05:26:39.472Z,-1.19
2023-03-16T05:29:09.903Z,-1.16
2023-03-16T05:31:37.985Z,-1.17
2023-03-16T05:34:10.361Z,-1.23
2023-03-16T05:36:36.925Z,-1.08
2023-03-16T05:39:11.854Z,-1.00
2023-03-16T05:41:42.463Z,-0.97
2023-03-16T05:44:17.834Z,-0.88
2023-03-16T05:47:04.042Z,-0.86
2023-03-16T05:49:32.792Z,-0.82
2023-03-16T05:52:02.950Z,-0.74
2023-03-16T05:54:31.403Z,-0.72
2023-03-16T05:56:57.927Z,-0.67
2023-03-16T05:59:24.722Z,-0.61
2023-03-16T06:01:54.645Z,-0.57
2023-03-16T06:04:21.857Z,-0.75
2023-03-16T06:06:48.787Z,-0.69
2023-03-16T06:09:26.374Z,-0.57
2023-03-16T06:11:53.316Z,-0.51
2023-03-16T06:14:20.256Z,-0.40
2023-03-16T06:16:47.194Z,-0.33
2023-03-16T06:19:15.084Z,-0.15
2023-03-16T06:21:42.326Z,0.13
2023-03-16T06:24:10.458Z,0.43
2023-03-16T06:26:38.193Z,0.67
2023-03-16T06:29:07.384Z,0.81
2023-03-16T06:31:36.469Z,0.88
2023-03-16T06:34:05.943Z,0.86
2023-03-16T06:36:32.545Z,0.83
2023-03-16T06:39:01.321Z,0.92
2023-03-16T06:41:32.707Z,0.93
2023-03-16T06:43:59.234Z,0.82
2023-03-16T06:46:27.742Z,0.95
2023-03-16T06:48:55.415Z,1.05
2023-03-16T06:51:21.897Z,1.25
2023-03-16T06:53:49.989Z,1.59
2023-03-16T06:56:17.054Z,1.90
2023-03-16T06:58:45.429Z,2.33
2023-03-16T07:01:12.497Z,2.69
2023-03-16T07:03:39.320Z,3.04
2023-03-16T07:06:14.852Z,3.34
2023-03-16T07:08:42.917Z,3.65
2023-03-16T07:11:10.622Z,4.17
2023-03-16T07:13:37.324Z,4.60
2023-03-16T07:16:05.035Z,4.91
2023-03-16T07:18:32.267Z,5.22
2023-03-16T07:20:59.339Z,5.42
2023-03-16T07:23:26.976Z,5.65
2023-03-16T07:26:00.684Z,5.72
2023-03-16T07:28:28.567Z,6.03
2023-03-16T07:31:03.933Z,6.27
2023-03-16T07:33:37.205Z,6.58
2023-03-16T07:36:06.634Z,6.78
2023-03-16T07:38:38.993Z,6.93
2023-03-16T07:41:05.516Z,6.83
2023-03-16T07:43:34.445Z,7.20
2023-03-16T07:46:01.994Z,7.42
2023-03-16T07:48:29.307Z,7.45
2023-03-16T07:51:00.438Z,7.29
2023-03-16T07:53:28.694Z,7.41
2023-03-16T07:56:12.495Z,7.28
2023-03-16T07:58:41.857Z,6.70
2023-03-16T08:01:10.820Z,6.50
2023-03-16T08:03:38.177Z,6.49
2023-03-16T08:06:06.038Z,6.60
2023-03-16T08:08:32.898Z,6.58
2023-03-16T08:10:59.483Z,6.67
2023-03-16T08:13:36.970Z,6.73
2023-03-16T08:16:05.380Z,6.62
2023-03-16T08:18:38.239Z,6.25
2023-03-16T08:21:06.636Z,6.10
2023-03-16T08:23:33.818Z,6.30
2023-03-16T08:26:01.139Z,6.54
2023-03-16T08:28:28.007Z,6.65
2023-03-16T08:30:58.332Z,6.53
2023-03-16T08:33:42.927Z,6.70
2023-03-16T08:36:13.285Z,6.71
2023-03-16T08:38:44.129Z,6.72
2023-03-16T08:41:12.475Z,6.71
2023-03-16T08:43:40.212Z,6.70
2023-03-16T08:46:07.273Z,6.96
2023-03-16T08:48:44.987Z,6.93
2023-03-16T08:51:11.968Z,7.18
2023-03-16T08:53:38.440Z,7.18
2023-03-16T08:56:08.199Z,7.44
2023-03-16T08:58:35.934Z,7.30
2023-03-16T09:01:05.666Z,7.27
2023-03-16T09:03:33.385Z,7.19
2023-03-16T09:06:06.693Z,7.32
2023-03-16T09:08:34.021Z,7.81
2023-03-16T09:11:08.609Z,8.13
2023-03-16T09:13:36.213Z,8.33
2023-03-16T09:16:02.998Z,8.46
2023-03-16T09:18:30.165Z,8.80
2023-03-16T09:21:01.319Z,9.16
2023-03-16T09:23:29.280Z,9.21
2023-03-16T09:26:01.012Z,9.54
2023-03-16T09:28:28.897Z,9.20
2023-03-16T09:30:56.992Z,9.08
2023-03-16T09:33:25.377Z,9.09
2023-03-16T09:35:52.696Z,9.06
2023-03-16T09:38:19.584Z,8.99
2023-03-16T09:40:48.849Z,8.71
2023-03-16T09:43:39.869Z,8.48
2023-03-16T09:46:30.022Z,8.66
2023-03-16T09:48:58.016Z,9.08
2023-03-16T09:51:43.346Z,9.40
2023-03-16T09:54:22.728Z,9.36
2023-03-16T09:56:50.291Z,9.71
2023-03-16T09:59:18.397Z,9.70
2023-03-16T10:02:05.978Z,9.63
2023-03-16T10:04:47.070Z,9.28
2023-03-16T10:07:34.385Z,9.20
2023-03-16T10:10:11.206Z,9.33
2023-03-16T10:12:43.398Z,9.36
2023-03-16T10:15:21.035Z,9.56
2023-03-16T10:17:56.458Z,9.40
2023-03-16T10:20:24.636Z,9.39
2023-03-16T10:22:52.621Z,9.30
2023-03-16T10:25:32.690Z,9.12
2023-03-16T10:27:59.422Z,9.25
2023-03-16T10:30:33.038Z,9.11
2023-03-16T10:33:18.444Z,9.22
2023-03-16T10:35:58.197Z,9.33
2023-03-16T10:38:39.997Z,9.37
2023-03-16T10:41:31.774Z,9.44
2023-03-16T10:44:16.622Z,9.47
2023-03-16T10:46:58.970Z,9.48
2023-03-16T10:49:36.034Z,9.19
2023-03-16T10:52:13.505Z,9.13
2023-03-16T10:54:46.394Z,9.08
2023-03-16T10:57:24.880Z,9.09
2023-03-16T10:59:53.877Z,8.76
2023-03-16T11:02:26.929Z,9.04
2023-03-16T11:04:54.360Z,8.83
2023-03-16T11:07:24.950Z,8.93
2023-03-16T11:09:53.006Z,9.01
2023-03-16T11:12:30.121Z,8.89
2023-03-16T11:15:20.073Z,9.21
2023-03-16T11:17:53.520Z,9.37
2023-03-16T11:20:29.038Z,9.13
2023-03-16T11:22:56.104Z,9.31
2023-03-16T11:25:37.097Z,9.42
2023-03-16T11:28:12.011Z,9.73
2023-03-16T11:30:49.763Z,9.87
2023-03-16T11:33:16.421Z,9.81
2023-03-16T11:35:58.380Z,9.47
2023-03-16T11:38:42.003Z,9.23
2023-03-16T11:41:18.293Z,9.41
2023-03-16T11:43:50.527Z,9.53
2023-03-16T11:46:31.948Z,9.34
2023-03-16T11:49:32.701Z,9.49
2023-03-16T11:52:11.336Z,9.54
2023-03-16T11:55:07.449Z,9.78
2023-03-16T11:57:51.846Z,9.91
2023-03-16T12:00:47.769Z,9.83
2023-03-16T12:03:32.321Z,9.58
2023-03-16T12:06:22.187Z,9.71
2023-03-16T12:09:27.232Z,9.59
2023-03-16T12:12:00.121Z,9.48
2023-03-16T12:14:33.796Z,9.44
2023-03-16T12:17:09.543Z,9.49
2023-03-16T12:19:53.556Z,9.15
2023-03-16T12:22:24.452Z,9.14
2023-03-16T12:24:50.866Z,9.43
2023-03-16T12:27:24.784Z,9.54
2023-03-16T12:30:41.124Z,9.53
2023-03-16T12:33:19.408Z,9.44
2023-03-16T12:35:54.794Z,9.40
2023-03-16T12:38:36.718Z,9.51
2023-03-16T12:41:24.687Z,9.60
2023-03-16T12:44:04.124Z,9.64
2023-03-16T12:46:47.781Z,9.60
2023-03-16T12:49:15.149Z,9.50
2023-03-16T12:51:43.688Z,9.57
2023-03-16T12:54:25.287Z,9.71
2023-03-16T12:56:59.554Z,9.67
2023-03-16T12:59:40.137Z,9.67
2023-03-16T13:02:13.532Z,9.73
2023-03-16T13:04:42.762Z,9.88
2023-03-16T13:07:22.618Z,9.88
2023-03-16T13:09:57.164Z,9.74
2023-03-16T13:12:32.786Z,9.81
2023-03-16T13:14:59.932Z,9.86
2023-03-16T13:17:30.051Z,9.87
2023-03-16T13:20:01.532Z,9.87
2023-03-16T13:22:43.147Z,9.77
2023-03-16T13:25:22.433Z,9.70
2023-03-16T13:27:54.470Z,9.71
2023-03-16T13:30:28.746Z,9.72
2023-03-16T13:33:00.060Z,9.75
2023-03-16T13:35:29.318Z,9.60
2023-03-16T13:38:05.594Z,9.51
2023-03-16T13:40:32.828Z,9.47
2023-03-16T13:42:59.459Z,9.62
2023-03-16T13:45:34.212Z,9.73
2023-03-16T13:48:01.893Z,9.77
2023-03-16T13:50:32.989Z,9.71
2023-03-16T13:53:04.191Z,9.71
2023-03-16T13:55:36.988Z,9.79
2023-03-16T13:58:04.551Z,9.75
2023-03-16T14:00:34.919Z,9.70
2023-03-16T14:03:13.344Z,9.81
2023-03-16T14:05:40.794Z,9.91
2023-03-16T14:08:23.282Z,9.90
2023-03-16T14:10:51.486Z,9.57
2023-03-16T14:13:32.305Z,9.66
2023-03-16T14:16:06.456Z,9.62
2023-03-16T14:18:46.020Z,9.47
2023-03-16T14:21:19.755Z,9.53
2023-03-16T14:23:51.176Z,9.48
2023-03-16T14:26:19.674Z,9.05
2023-03-16T14:29:06.398Z,8.97
2023-03-16T14:31:38.644Z,9.12
2023-03-16T14:34:23.045Z,9.07
2023-03-16T14:36:49.488Z,9.17
2023-03-16T14:39:20.783Z,9.25
2023-03-16T14:41:53.478Z,9.36
2023-03-16T14:44:24.341Z,9.37
2023-03-16T14:46:54.112Z,9.49
2023-03-16T14:49:33.332Z,9.45
2023-03-16T14:52:15.357Z,9.67
2023-03-16T14:54:41.816Z,9.81
2023-03-16T14:57:16.692Z,9.73
2023-03-16T14:59:43.598Z,9.51
2023-03-16T15:02:17.082Z,9.45
2023-03-16T15:04:44.485Z,9.40
2023-03-16T15:07:25.202Z,9.38
2023-03-16T15:09:53.865Z,9.44
2023-03-16T15:12:21.690Z,9.38
2023-03-16T15:15:06.889Z,9.34
2023-03-16T15:17:33.613Z,9.49
2023-03-16T15:20:00.129Z,9.54
2023-03-16T15:22:34.013Z,9.49
2023-03-16T15:25:17.990Z,9.50
2023-03-16T15:27:44.466Z,9.15
2023-03-16T15:30:31.673Z,8.79
2023-03-16T15:32:58.317Z,9.00
2023-03-16T15:35:24.917Z,8.97
2023-03-16T15:37:51.418Z,9.10
2023-03-16T15:40:24.526Z,8.82
2023-03-16T15:42:51.539Z,8.98
2023-03-16T15:45:21.332Z,9.07
2023-03-16T15:47:49.722Z,9.04
2023-03-16T15:50:19.448Z,9.14
2023-03-16T15:52:49.532Z,9.02
2023-03-16T15:55:20.003Z,8.73
2023-03-16T15:57:48.863Z,8.71
2023-03-16T16:00:42.148Z,8.72
2023-03-16T16:03:11.674Z,8.80
2023-03-16T16:05:38.125Z,8.72
2023-03-16T16:08:04.862Z,8.75
2023-03-16T16:10:32.254Z,8.72
2023-03-16T16:12:59.066Z,8.68
2023-03-16T16:15:31.866Z,8.53
2023-03-16T16:18:19.734Z,8.58
2023-03-16T16:20:45.013Z,8.66
2023-03-16T16:23:11.462Z,8.68
2023-03-16T16:25:41.458Z,8.63
2023-03-16T16:28:17.535Z,8.73
2023-03-16T16:30:44.382Z,8.65
2023-03-16T16:33:31.291Z,8.64
2023-03-16T16:36:00.570Z,8.59
2023-03-16T16:38:27.257Z,8.51
2023-03-16T16:40:58.000Z,8.62
2023-03-16T16:43:46.535Z,8.52
2023-03-16T16:46:16.540Z,8.57
2023-03-16T16:48:46.482Z,8.59
2023-03-16T16:51:24.656Z,8.39
2023-03-16T16:53:52.892Z,8.38
2023-03-16T16:56:27.463Z,8.44
2023-03-16T16:58:55.892Z,8.45
2023-03-16T17:01:34.611Z,8.43
2023-03-16T17:04:02.832Z,8.44
2023-03-16T17:06:29.696Z,8.32
2023-03-16T17:08:56.149Z,8.35
2023-03-16T17:11:29.079Z,8.37
2023-03-16T17:13:58.130Z,8.30
2023-03-16T17:16:28.597Z,8.26
2023-03-16T17:18:55.444Z,8.28
2023-03-16T17:21:25.145Z,8.23
2023-03-16T17:23:55.086Z,8.15
2023-03-16T17:26:23.345Z,8.05
2023-03-16T17:28:54.786Z,7.95
2023-03-16T17:31:24.344Z,7.84
2023-03-16T17:33:52.459Z,7.89
2023-03-16T17:36:20.473Z,7.83
2023-03-16T17:38:47.532Z,7.86
2023-03-16T17:41:22.793Z,7.71
2023-03-16T17:43:51.211Z,7.64
2023-03-16T17:46:20.263Z,7.59
2023-03-16T17:48:47.975Z,7.44
2023-03-16T17:51:16.484Z,7.61
2023-03-16T17:53:43.881Z,7.58
2023-03-16T17:56:21.089Z,7.57
2023-03-16T17:58:51.229Z,7.51
2023-03-16T18:01:21.962Z,7.42
2023-03-16T18:03:48.497Z,7.38
2023-03-16T18:06:26.125Z,7.30
2023-03-16T18:08:53.024Z,7.26
2023-03-16T18:11:22.065Z,7.28
2023-03-16T18:13:50.722Z,7.33
2023-03-16T18:16:27.966Z,7.30
2023-03-16T18:18:59.045Z,7.15
2023-03-16T18:21:25.974Z,7.21
2023-03-16T18:23:53.688Z,7.16
2023-03-16T18:26:20.710Z,7.18
2023-03-16T18:28:48.209Z,7.11
2023-03-16T18:31:27.467Z,7.06
2023-03-16T18:34:00.586Z,7.11
2023-03-16T18:36:31.365Z,7.11
2023-03-16T18:39:00.885Z,7.09
2023-03-16T18:41:29.484Z,7.06
2023-03-16T18:43:58.688Z,6.99
2023-03-16T18:46:28.877Z,6.94
2023-03-16T18:48:58.101Z,6.77
2023-03-16T18:51:25.503Z,6.53
2023-03-16T18:53:53.348Z,6.35
2023-03-16T18:56:25.715Z,6.33
2023-03-16T18:58:53.103Z,6.38
2023-03-16T19:01:30.016Z,6.46
2023-03-16T19:03:58.858Z,6.50
2023-03-16T19:06:30.906Z,6.53
2023-03-16T19:09:19.075Z,6.40
2023-03-16T19:11:46.940Z,6.39
2023-03-16T19:14:23.892Z,6.42
2023-03-16T19:16:51.604Z,6.40
2023-03-16T19:19:22.602Z,6.35
2023-03-16T19:21:51.666Z,6.34
2023-03-16T19:24:24.131Z,6.31
2023-03-16T19:26:51.165Z,6.12
2023-03-16T19:29:22.256Z,6.09
2023-03-16T19:31:48.807Z,5.96
2023-03-16T19:34:17.791Z,6.00
2023-03-16T19:36:44.905Z,5.75
2023-03-16T19:39:13.486Z,5.85
2023-03-16T19:41:40.508Z,5.50
2023-03-16T19:44:19.574Z,5.60
2023-03-16T19:46:46.720Z,5.37
2023-03-16T19:49:21.732Z,5.21
2023-03-16T19:51:51.405Z,5.12
2023-03-16T19:54:31.414Z,5.17
2023-03-16T19:57:02.378Z,5.20
2023-03-16T19:59:32.611Z,5.17
2023-03-16T20:02:00.077Z,5.15
2023-03-16T20:04:27.622Z,5.05
2023-03-16T20:06:54.273Z,5.05
2023-03-16T20:09:22.128Z,5.05
2023-03-16T20:11:49.545Z,5.11
2023-03-16T20:14:25.536Z,5.10
2023-03-16T20:16:53.179Z,5.13
2023-03-16T20:19:22.203Z,5.09
2023-03-16T20:21:49.099Z,5.16
2023-03-16T20:24:17.369Z,5.06
2023-03-16T20:26:46.636Z,4.99
2023-03-16T20:29:28.933Z,4.95
2023-03-16T20:31:56.151Z,4.98
2023-03-16T20:34:28.439Z,5.00
2023-03-16T20:36:55.788Z,4.91
2023-03-16T20:39:22.618Z,4.98
2023-03-16T20:41:49.523Z,4.84
2023-03-16T20:44:19.467Z,4.80
2023-03-16T20:46:46.932Z,4.86
2023-03-16T20:49:22.464Z,4.85
2023-03-16T20:51:50.156Z,4.93
2023-03-16T20:54:17.663Z,4.91
2023-03-16T20:56:44.462Z,4.91
2023-03-16T20:59:18.751Z,4.96
2023-03-16T21:01:45.951Z,4.85
2023-03-16T21:04:27.505Z,4.85
2023-03-16T21:06:55.035Z,4.79
2023-03-16T21:09:22.124Z,4.72
2023-03-16T21:11:48.694Z,4.78
2023-03-16T21:14:18.120Z,4.70
2023-03-16T21:16:44.675Z,4.72
2023-03-16T21:19:16.155Z,4.70
2023-03-16T21:21:43.368Z,4.52
2023-03-16T21:24:09.832Z,4.51
2023-03-16T21:26:37.215Z,4.49
2023-03-16T21:29:08.148Z,4.61
2023-03-16T21:31:34.869Z,4.70
2023-03-16T21:34:01.835Z,4.69
2023-03-16T21:36:28.520Z,4.74
2023-03-16T21:38:57.022Z,4.72
2023-03-16T21:41:23.484Z,4.75
2023-03-16T21:43:50.153Z,4.73
2023-03-16T21:46:22.896Z,4.80
2023-03-16T21:48:55.107Z,4.86
2023-03-16T21:51:26.348Z,4.82
2023-03-16T21:53:53.448Z,4.78
2023-03-16T21:56:23.079Z,4.82
2023-03-16T21:58:50.418Z,4.80
2023-03-16T22:01:29.161Z,4.80
2023-03-16T22:03:58.243Z,4.72
2023-03-16T22:06:28.003Z,4.70
2023-03-16T22:08:55.263Z,4.65
2023-03-16T22:11:27.715Z,4.54
2023-03-16T22:13:55.485Z,4.58
2023-03-16T22:16:24.429Z,4.51
2023-03-16T22:18:56.223Z,4.52
2023-03-16T22:21:32.236Z,4.48
2023-03-16T22:23:59.868Z,4.47
2023-03-16T22:26:26.689Z,4.42
2023-03-16T22:28:55.996Z,4.35
2023-03-16T22:31:30.739Z,4.36
2023-03-16T22:33:57.442Z,4.41
2023-03-16T22:36:24.762Z,4.46
2023-03-16T22:39:01.260Z,4.43
2023-03-16T22:41:29.347Z,4.31
2023-03-16T22:43:56.316Z,4.33
2023-03-16T22:46:25.763Z,4.22
2023-03-16T22:48:53.898Z,4.18
2023-03-16T22:51:20.237Z,4.07
2023-03-16T22:53:47.009Z,4.17
2023-03-16T22:56:13.662Z,4.14
2023-03-16T22:58:46.846Z,4.17
2023-03-16T23:01:19.202Z,4.26
2023-03-16T23:03:47.558Z,4.21
2023-03-16T23:06:20.360Z,4.21
2023-03-16T23:08:47.647Z,4.28
2023-03-16T23:11:19.406Z,4.29
2023-03-16T23:13:46.418Z,4.35
2023-03-16T23:16:36.504Z,4.35
2023-03-16T23:19:09.840Z,4.40
2023-03-16T23:21:42.081Z,4.35
2023-03-16T23:24:08.689Z,4.40
2023-03-16T23:26:35.153Z,4.31
2023-03-16T23:29:01.549Z,4.28
2023-03-16T23:31:29.142Z,4.28
2023-03-16T23:33:55.714Z,4.27
2023-03-16T23:36:24.607Z,4.19
2023-03-16T23:38:51.351Z,4.15
2023-03-16T23:41:21.743Z,4.05
2023-03-16T23:43:50.673Z,3.94
2023-03-16T23:46:19.876Z,3.88
2023-03-16T23:48:49.015Z,3.78
2023-03-16T23:51:23.326Z,3.82
2023-03-16T23:53:49.814Z,3.87
2023-03-16T23:56:16.827Z,3.94
2023-03-16T23:58:43.670Z,3.99
